KBLU/BLU METAR and TAF weather

Enter ICAO airport designator
Station Type Date Time Source
KBLU METAR 2023/02/04 01:52 UTC NOAA

KBLU 040152Z AUTO VRB05KT 10SM OVC019 02/M01 A3023 RMK AO2 SLP229 T00221011


Station Type Date Time Source
KBLU Decoded METAR 2023/02/04 01:52 UTC NOAA

BLUE CANYON AIRPORT, CA, United States (KBLU) 39-17N 120-42W 1609M
Feb 03, 2023 - 08:52 PM EST / 2023.02.04 0152 UTC
Wind: Variable at 6 MPH (5 KT):0
Visibility: 10 mile(s):0
Sky conditions: overcast
Temperature: 36.0 F (2.2 C)
Dew Point: 30.0 F (-1.1 C)
Relative Humidity: 78%
Pressure (altimeter): 30.23 in. Hg (1023 hPa)
ob: KBLU 040152Z AUTO VRB05KT 10SM OVC019 02/M01 A3023 RMK AO2 SLP229 T00221011
cycle: 2

Station Type Date Time Source
KBLU TAF UTC NOAA

Error!

Example: see airport list